sensor_id;sensor_type;location;lat;lon;timestamp;P1;P2;P0
73148;PMS7003;61346;48.930;2.266;2022-07-29T00:00:58;8.75;7.75;6.25
73148;PMS7003;61346;48.930;2.266;2022-07-29T00:03:25;12.00;9.00;7.75
73148;PMS7003;61346;48.930;2.266;2022-07-29T00:05:51;8.50;8.50;7.50
73148;PMS7003;61346;48.930;2.266;2022-07-29T00:08:17;14.25;8.00;6.00
73148;PMS7003;61346;48.930;2.266;2022-07-29T00:10:43;6.25;6.00;5.00
73148;PMS7003;61346;48.930;2.266;2022-07-29T00:13:09;7.00;6.75;5.00
73148;PMS7003;61346;48.930;2.266;2022-07-29T00:15:34;5.50;4.50;4.00
73148;PMS7003;61346;48.930;2.266;2022-07-29T00:18:00;5.00;4.00;4.00
73148;PMS7003;61346;48.930;2.266;2022-07-29T00:20:25;5.00;5.00;4.00
73148;PMS7003;61346;48.930;2.266;2022-07-29T00:22:50;5.25;5.00;4.00
73148;PMS7003;61346;48.930;2.266;2022-07-29T00:25:16;5.00;5.00;3.75
73148;PMS7003;61346;48.930;2.266;2022-07-29T00:27:42;6.25;5.00;4.00
73148;PMS7003;61346;48.930;2.266;2022-07-29T00:30:10;7.25;6.00;4.00
73148;PMS7003;61346;48.930;2.266;2022-07-29T00:32:36;5.75;5.50;4.25
73148;PMS7003;61346;48.930;2.266;2022-07-29T00:35:01;6.00;6.00;4.00
73148;PMS7003;61346;48.930;2.266;2022-07-29T00:37:48;5.25;5.25;4.25
73148;PMS7003;61346;48.930;2.266;2022-07-29T00:40:13;5.50;5.50;5.00
73148;PMS7003;61346;48.930;2.266;2022-07-29T00:42:46;4.50;4.00;3.25
73148;PMS7003;61346;48.930;2.266;2022-07-29T00:45:13;6.00;5.25;5.00
73148;PMS7003;61346;48.930;2.266;2022-07-29T00:47:40;6.25;5.25;4.50
73148;PMS7003;61346;48.930;2.266;2022-07-29T00:50:05;6.75;6.25;4.75
73148;PMS7003;61346;48.930;2.266;2022-07-29T00:52:33;5.50;5.50;4.50
73148;PMS7003;61346;48.930;2.266;2022-07-29T00:55:00;6.50;6.50;6.00
73148;PMS7003;61346;48.930;2.266;2022-07-29T00:57:27;4.75;3.75;3.75
73148;PMS7003;61346;48.930;2.266;2022-07-29T00:59:52;4.75;4.75;4.00
73148;PMS7003;61346;48.930;2.266;2022-07-29T01:02:18;3.75;3.50;2.00
73148;PMS7003;61346;48.930;2.266;2022-07-29T01:04:43;6.25;6.00;4.00
73148;PMS7003;61346;48.930;2.266;2022-07-29T01:07:08;5.25;4.25;3.75
73148;PMS7003;61346;48.930;2.266;2022-07-29T01:09:35;7.00;6.00;4.75
73148;PMS7003;61346;48.930;2.266;2022-07-29T01:12:02;6.75;5.00;4.25
73148;PMS7003;61346;48.930;2.266;2022-07-29T01:14:29;7.50;5.75;5.75
73148;PMS7003;61346;48.930;2.266;2022-07-29T01:17:00;5.25;5.25;5.00
73148;PMS7003;61346;48.930;2.266;2022-07-29T01:25:02;11.00;7.00;6.25
73148;PMS7003;61346;48.930;2.266;2022-07-29T01:30:30;7.50;6.00;5.50
73148;PMS7003;61346;48.930;2.266;2022-07-29T01:33:03;6.00;6.00;5.00
73148;PMS7003;61346;48.930;2.266;2022-07-29T01:35:43;9.25;8.00;6.75
73148;PMS7003;61346;48.930;2.266;2022-07-29T01:38:15;7.25;7.25;7.00
73148;PMS7003;61346;48.930;2.266;2022-07-29T01:40:58;7.25;6.00;5.00
73148;PMS7003;61346;48.930;2.266;2022-07-29T01:43:51;10.25;9.25;7.50
73148;PMS7003;61346;48.930;2.266;2022-07-29T01:46:28;7.25;6.75;5.00
73148;PMS7003;61346;48.930;2.266;2022-07-29T01:49:00;5.50;5.50;5.00
73148;PMS7003;61346;48.930;2.266;2022-07-29T01:51:33;13.00;10.00;8.00
73148;PMS7003;61346;48.930;2.266;2022-07-29T01:54:07;9.00;7.50;6.50
73148;PMS7003;61346;48.930;2.266;2022-07-29T01:56:36;8.75;8.75;7.00
73148;PMS7003;61346;48.930;2.266;2022-07-29T01:59:04;11.50;11.50;10.00
73148;PMS7003;61346;48.930;2.266;2022-07-29T02:01:32;8.00;8.00;6.50
73148;PMS7003;61346;48.930;2.266;2022-07-29T02:04:01;12.50;9.25;7.75
73148;PMS7003;61346;48.930;2.266;2022-07-29T02:06:29;9.75;9.75;8.00
73148;PMS7003;61346;48.930;2.266;2022-07-29T02:08:58;10.00;10.00;8.00
73148;PMS7003;61346;48.930;2.266;2022-07-29T02:11:24;10.25;8.25;6.75
73148;PMS7003;61346;48.930;2.266;2022-07-29T02:13:51;7.25;7.25;6.25
73148;PMS7003;61346;48.930;2.266;2022-07-29T02:16:19;9.75;9.75;8.00
73148;PMS7003;61346;48.930;2.266;2022-07-29T02:18:46;11.25;10.00;9.00
73148;PMS7003;61346;48.930;2.266;2022-07-29T02:21:14;15.25;12.50;10.50
73148;PMS7003;61346;48.930;2.266;2022-07-29T02:23:46;12.50;11.00;9.50
73148;PMS7003;61346;48.930;2.266;2022-07-29T02:26:13;11.25;11.25;8.75
73148;PMS7003;61346;48.930;2.266;2022-07-29T02:28:40;10.25;9.00;8.50
73148;PMS7003;61346;48.930;2.266;2022-07-29T02:31:06;10.75;10.75;8.50
73148;PMS7003;61346;48.930;2.266;2022-07-29T02:33:33;11.50;10.25;9.25
73148;PMS7003;61346;48.930;2.266;2022-07-29T02:35:59;12.50;8.50;8.00
73148;PMS7003;61346;48.930;2.266;2022-07-29T02:38:27;11.00;10.75;9.00
73148;PMS7003;61346;48.930;2.266;2022-07-29T02:41:15;11.25;11.25;9.75
73148;PMS7003;61346;48.930;2.266;2022-07-29T02:43:44;12.75;12.50;10.50
73148;PMS7003;61346;48.930;2.266;2022-07-29T02:46:14;13.25;11.75;10.00
73148;PMS7003;61346;48.930;2.266;2022-07-29T02:48:45;10.25;9.00;9.00
73148;PMS7003;61346;48.930;2.266;2022-07-29T02:51:21;12.50;9.00;8.00
73148;PMS7003;61346;48.930;2.266;2022-07-29T02:53:53;12.50;12.00;10.75
73148;PMS7003;61346;48.930;2.266;2022-07-29T02:56:23;10.50;10.50;8.75
73148;PMS7003;61346;48.930;2.266;2022-07-29T02:58:56;12.50;10.00;8.00
73148;PMS7003;61346;48.930;2.266;2022-07-29T03:01:24;9.25;9.25;8.25
73148;PMS7003;61346;48.930;2.266;2022-07-29T03:03:53;10.00;10.00;9.00
73148;PMS7003;61346;48.930;2.266;2022-07-29T03:06:20;11.50;9.50;7.75
73148;PMS7003;61346;48.930;2.266;2022-07-29T03:08:47;8.50;8.00;4.00
73148;PMS7003;61346;48.930;2.266;2022-07-29T03:11:20;10.00;9.00;7.75
73148;PMS7003;61346;48.930;2.266;2022-07-29T03:13:46;8.75;7.00;6.00
73148;PMS7003;61346;48.930;2.266;2022-07-29T03:16:12;8.00;7.50;6.00
73148;PMS7003;61346;48.930;2.266;2022-07-29T03:18:39;11.50;10.50;9.00
73148;PMS7003;61346;48.930;2.266;2022-07-29T03:21:05;9.75;9.75;7.75
73148;PMS7003;61346;48.930;2.266;2022-07-29T03:23:30;11.00;7.75;6.00
73148;PMS7003;61346;48.930;2.266;2022-07-29T03:25:56;12.25;9.50;8.00
73148;PMS7003;61346;48.930;2.266;2022-07-29T03:28:22;11.00;9.50;8.50
73148;PMS7003;61346;48.930;2.266;2022-07-29T03:30:47;12.00;9.75;8.25
73148;PMS7003;61346;48.930;2.266;2022-07-29T03:33:13;10.25;9.00;8.00
73148;PMS7003;61346;48.930;2.266;2022-07-29T03:35:39;10.50;10.00;9.00
73148;PMS7003;61346;48.930;2.266;2022-07-29T03:38:04;10.50;10.50;9.25
73148;PMS7003;61346;48.930;2.266;2022-07-29T03:40:43;11.25;11.25;10.00
73148;PMS7003;61346;48.930;2.266;2022-07-29T03:43:13;11.25;10.75;8.50
73148;PMS7003;61346;48.930;2.266;2022-07-29T03:45:42;13.25;12.25;10.25
73148;PMS7003;61346;48.930;2.266;2022-07-29T03:48:12;13.75;10.50;9.00
73148;PMS7003;61346;48.930;2.266;2022-07-29T03:50:41;13.75;11.00;8.50
73148;PMS7003;61346;48.930;2.266;2022-07-29T03:53:07;9.50;9.50;8.25
73148;PMS7003;61346;48.930;2.266;2022-07-29T03:55:33;9.00;9.00;7.00
73148;PMS7003;61346;48.930;2.266;2022-07-29T03:58:05;11.00;11.00;9.00
73148;PMS7003;61346;48.930;2.266;2022-07-29T04:00:33;11.25;9.50;8.25
73148;PMS7003;61346;48.930;2.266;2022-07-29T04:02:59;11.00;10.00;8.00
73148;PMS7003;61346;48.930;2.266;2022-07-29T04:05:26;13.75;9.50;8.25
73148;PMS7003;61346;48.930;2.266;2022-07-29T04:07:51;13.50;12.25;8.00
73148;PMS7003;61346;48.930;2.266;2022-07-29T04:10:16;14.25;12.50;10.00
73148;PMS7003;61346;48.930;2.266;2022-07-29T04:12:42;11.25;11.25;9.75
73148;PMS7003;61346;48.930;2.266;2022-07-29T04:15:08;8.75;8.75;7.25
73148;PMS7003;61346;48.930;2.266;2022-07-29T04:17:34;9.00;9.00;8.00
73148;PMS7003;61346;48.930;2.266;2022-07-29T04:20:01;7.00;7.00;6.25
73148;PMS7003;61346;48.930;2.266;2022-07-29T04:22:26;11.25;8.50;7.00
73148;PMS7003;61346;48.930;2.266;2022-07-29T04:24:52;13.25;9.25;8.00
73148;PMS7003;61346;48.930;2.266;2022-07-29T04:27:17;14.50;9.50;7.25
73148;PMS7003;61346;48.930;2.266;2022-07-29T04:29:43;11.50;10.00;8.00
73148;PMS7003;61346;48.930;2.266;2022-07-29T04:32:08;11.00;9.25;8.50
73148;PMS7003;61346;48.930;2.266;2022-07-29T04:34:34;9.75;9.00;7.50
73148;PMS7003;61346;48.930;2.266;2022-07-29T04:36:59;11.00;9.50;7.00
73148;PMS7003;61346;48.930;2.266;2022-07-29T04:39:24;8.25;8.25;6.50
73148;PMS7003;61346;48.930;2.266;2022-07-29T04:41:50;11.50;11.50;9.00
73148;PMS7003;61346;48.930;2.266;2022-07-29T04:44:16;9.00;9.00;8.50
73148;PMS7003;61346;48.930;2.266;2022-07-29T04:46:41;9.25;9.25;8.00
73148;PMS7003;61346;48.930;2.266;2022-07-29T04:49:07;9.75;9.75;8.75
73148;PMS7003;61346;48.930;2.266;2022-07-29T04:51:33;7.75;7.75;6.00
73148;PMS7003;61346;48.930;2.266;2022-07-29T04:53:58;9.50;9.50;7.75
73148;PMS7003;61346;48.930;2.266;2022-07-29T04:56:24;6.00;6.00;5.25
73148;PMS7003;61346;48.930;2.266;2022-07-29T04:58:49;7.75;7.75;7.50
73148;PMS7003;61346;48.930;2.266;2022-07-29T05:01:15;9.75;8.00;6.50
73148;PMS7003;61346;48.930;2.266;2022-07-29T05:03:40;8.00;8.00;7.75
73148;PMS7003;61346;48.930;2.266;2022-07-29T05:06:06;9.25;9.25;8.25
73148;PMS7003;61346;48.930;2.266;2022-07-29T05:08:31;10.25;9.75;8.00
73148;PMS7003;61346;48.930;2.266;2022-07-29T05:10:57;11.50;9.25;7.50
73148;PMS7003;61346;48.930;2.266;2022-07-29T05:13:22;12.50;11.25;8.50
73148;PMS7003;61346;48.930;2.266;2022-07-29T05:15:47;8.75;8.75;7.25
73148;PMS7003;61346;48.930;2.266;2022-07-29T05:18:13;9.50;8.50;7.25
73148;PMS7003;61346;48.930;2.266;2022-07-29T05:20:39;12.00;10.25;8.25
73148;PMS7003;61346;48.930;2.266;2022-07-29T05:23:04;15.00;10.00;8.75
73148;PMS7003;61346;48.930;2.266;2022-07-29T05:25:30;13.50;9.25;7.25
73148;PMS7003;61346;48.930;2.266;2022-07-29T05:27:56;15.75;9.75;9.25
73148;PMS7003;61346;48.930;2.266;2022-07-29T05:30:21;10.50;7.75;6.25
73148;PMS7003;61346;48.930;2.266;2022-07-29T05:32:47;11.00;9.00;6.50
73148;PMS7003;61346;48.930;2.266;2022-07-29T05:35:13;9.75;9.75;8.00
73148;PMS7003;61346;48.930;2.266;2022-07-29T05:37:39;8.50;8.25;5.25
73148;PMS7003;61346;48.930;2.266;2022-07-29T05:40:05;10.00;8.75;7.25
73148;PMS7003;61346;48.930;2.266;2022-07-29T05:42:31;11.25;9.50;8.25
73148;PMS7003;61346;48.930;2.266;2022-07-29T05:44:56;10.50;9.00;7.25
73148;PMS7003;61346;48.930;2.266;2022-07-29T05:47:22;9.50;9.50;8.00
73148;PMS7003;61346;48.930;2.266;2022-07-29T05:49:48;7.75;7.75;6.50
73148;PMS7003;61346;48.930;2.266;2022-07-29T05:52:14;8.25;8.00;7.00
73148;PMS7003;61346;48.930;2.266;2022-07-29T05:54:40;9.50;9.50;8.00
73148;PMS7003;61346;48.930;2.266;2022-07-29T05:57:05;10.00;10.00;8.25
73148;PMS7003;61346;48.930;2.266;2022-07-29T05:59:31;11.50;9.25;9.25
73148;PMS7003;61346;48.930;2.266;2022-07-29T06:02:01;8.50;8.50;6.50
73148;PMS7003;61346;48.930;2.266;2022-07-29T06:04:26;10.75;10.75;8.50
73148;PMS7003;61346;48.930;2.266;2022-07-29T06:06:51;12.25;10.50;8.25
73148;PMS7003;61346;48.930;2.266;2022-07-29T06:09:17;13.75;9.75;8.25
73148;PMS7003;61346;48.930;2.266;2022-07-29T06:11:43;13.00;11.75;8.25
73148;PMS7003;61346;48.930;2.266;2022-07-29T06:14:09;11.00;8.50;6.00
73148;PMS7003;61346;48.930;2.266;2022-07-29T06:16:35;8.25;8.25;7.25
73148;PMS7003;61346;48.930;2.266;2022-07-29T06:19:00;9.50;9.25;7.50
73148;PMS7003;61346;48.930;2.266;2022-07-29T06:21:25;9.75;9.25;8.25
73148;PMS7003;61346;48.930;2.266;2022-07-29T06:23:51;9.00;8.00;7.50
73148;PMS7003;61346;48.930;2.266;2022-07-29T06:26:16;8.50;8.50;7.50
73148;PMS7003;61346;48.930;2.266;2022-07-29T06:28:42;10.00;10.00;8.25
73148;PMS7003;61346;48.930;2.266;2022-07-29T06:31:07;10.00;8.75;7.25
73148;PMS7003;61346;48.930;2.266;2022-07-29T06:33:33;11.50;9.75;8.25
73148;PMS7003;61346;48.930;2.266;2022-07-29T06:35:58;9.50;8.75;6.00
73148;PMS7003;61346;48.930;2.266;2022-07-29T06:38:24;11.00;8.00;7.00
73148;PMS7003;61346;48.930;2.266;2022-07-29T06:40:50;10.25;8.75;6.25
73148;PMS7003;61346;48.930;2.266;2022-07-29T06:43:33;7.50;7.50;6.50
73148;PMS7003;61346;48.930;2.266;2022-07-29T06:46:06;6.25;5.50;4.50
73148;PMS7003;61346;48.930;2.266;2022-07-29T06:48:34;5.75;5.75;3.75
73148;PMS7003;61346;48.930;2.266;2022-07-29T06:51:01;9.00;6.50;5.25
73148;PMS7003;61346;48.930;2.266;2022-07-29T06:53:27;9.00;7.25;5.00
73148;PMS7003;61346;48.930;2.266;2022-07-29T06:55:53;7.75;5.75;5.00
73148;PMS7003;61346;48.930;2.266;2022-07-29T06:58:18;7.75;4.50;4.25
73148;PMS7003;61346;48.930;2.266;2022-07-29T07:00:45;7.50;7.50;5.50
73148;PMS7003;61346;48.930;2.266;2022-07-29T07:03:12;9.50;6.25;5.25
73148;PMS7003;61346;48.930;2.266;2022-07-29T07:05:37;7.75;6.25;5.25
73148;PMS7003;61346;48.930;2.266;2022-07-29T07:08:03;8.25;8.25;6.50
73148;PMS7003;61346;48.930;2.266;2022-07-29T07:10:28;10.25;7.75;5.25
73148;PMS7003;61346;48.930;2.266;2022-07-29T07:12:54;9.25;7.25;5.25
73148;PMS7003;61346;48.930;2.266;2022-07-29T07:15:20;9.25;7.75;6.00
73148;PMS7003;61346;48.930;2.266;2022-07-29T07:17:47;7.25;6.50;5.75
73148;PMS7003;61346;48.930;2.266;2022-07-29T07:20:14;7.25;7.25;6.00
73148;PMS7003;61346;48.930;2.266;2022-07-29T07:22:39;11.00;7.75;7.25
73148;PMS7003;61346;48.930;2.266;2022-07-29T07:25:05;6.25;6.00;5.75
73148;PMS7003;61346;48.930;2.266;2022-07-29T07:27:32;6.50;5.25;5.00
73148;PMS7003;61346;48.930;2.266;2022-07-29T07:29:58;8.25;6.00;5.00
73148;PMS7003;61346;48.930;2.266;2022-07-29T07:32:25;10.25;8.50;6.50
73148;PMS7003;61346;48.930;2.266;2022-07-29T07:34:51;6.50;4.50;4.25
73148;PMS7003;61346;48.930;2.266;2022-07-29T07:37:17;7.75;7.75;6.00
73148;PMS7003;61346;48.930;2.266;2022-07-29T07:39:45;7.50;4.50;4.25
73148;PMS7003;61346;48.930;2.266;2022-07-29T07:42:10;9.00;7.50;6.00
73148;PMS7003;61346;48.930;2.266;2022-07-29T07:44:37;7.00;7.00;6.00
73148;PMS7003;61346;48.930;2.266;2022-07-29T07:47:03;6.00;6.00;5.00
73148;PMS7003;61346;48.930;2.266;2022-07-29T07:49:29;10.00;6.75;6.00
73148;PMS7003;61346;48.930;2.266;2022-07-29T07:51:54;7.75;6.50;5.50
73148;PMS7003;61346;48.930;2.266;2022-07-29T07:54:20;5.25;5.25;5.00
73148;PMS7003;61346;48.930;2.266;2022-07-29T07:56:45;5.75;5.75;5.00
73148;PMS7003;61346;48.930;2.266;2022-07-29T07:59:13;5.50;5.25;5.00
73148;PMS7003;61346;48.930;2.266;2022-07-29T08:01:39;6.75;6.75;6.00
73148;PMS7003;61346;48.930;2.266;2022-07-29T08:04:04;5.50;4.50;3.75
73148;PMS7003;61346;48.930;2.266;2022-07-29T08:06:29;8.50;7.25;7.00
73148;PMS7003;61346;48.930;2.266;2022-07-29T08:08:55;6.25;6.00;5.25
73148;PMS7003;61346;48.930;2.266;2022-07-29T08:11:20;7.00;7.00;6.25
73148;PMS7003;61346;48.930;2.266;2022-07-29T08:13:46;7.50;7.50;5.75
73148;PMS7003;61346;48.930;2.266;2022-07-29T08:16:12;6.00;6.00;5.00
73148;PMS7003;61346;48.930;2.266;2022-07-29T08:18:38;6.00;6.00;4.00
73148;PMS7003;61346;48.930;2.266;2022-07-29T08:21:04;8.25;7.00;6.00
73148;PMS7003;61346;48.930;2.266;2022-07-29T08:23:30;8.25;6.25;5.00
73148;PMS7003;61346;48.930;2.266;2022-07-29T08:26:10;6.25;6.25;5.50
73148;PMS7003;61346;48.930;2.266;2022-07-29T08:28:37;5.25;5.25;4.75
73148;PMS7003;61346;48.930;2.266;2022-07-29T08:31:05;8.25;7.00;6.00
73148;PMS7003;61346;48.930;2.266;2022-07-29T08:33:31;6.00;6.00;5.75
73148;PMS7003;61346;48.930;2.266;2022-07-29T08:35:57;6.00;4.00;4.00
73148;PMS7003;61346;48.930;2.266;2022-07-29T08:38:22;4.50;4.00;3.00
73148;PMS7003;61346;48.930;2.266;2022-07-29T08:40:48;5.75;5.75;5.00
73148;PMS7003;61346;48.930;2.266;2022-07-29T08:43:14;8.00;6.25;5.50
73148;PMS7003;61346;48.930;2.266;2022-07-29T08:45:45;5.50;5.50;5.00
73148;PMS7003;61346;48.930;2.266;2022-07-29T08:48:13;6.00;4.25;3.50
73148;PMS7003;61346;48.930;2.266;2022-07-29T08:50:44;6.50;4.75;3.00
73148;PMS7003;61346;48.930;2.266;2022-07-29T08:53:11;6.00;5.00;4.25
73148;PMS7003;61346;48.930;2.266;2022-07-29T08:55:40;5.25;5.25;5.00
73148;PMS7003;61346;48.930;2.266;2022-07-29T08:58:08;4.50;4.00;4.00
73148;PMS7003;61346;48.930;2.266;2022-07-29T09:00:34;6.00;6.00;5.00
73148;PMS7003;61346;48.930;2.266;2022-07-29T09:03:08;4.00;4.00;3.50
73148;PMS7003;61346;48.930;2.266;2022-07-29T09:05:35;5.25;5.25;4.25
73148;PMS7003;61346;48.930;2.266;2022-07-29T09:08:01;5.00;5.00;4.00
73148;PMS7003;61346;48.930;2.266;2022-07-29T09:10:26;5.00;5.00;4.50
73148;PMS7003;61346;48.930;2.266;2022-07-29T09:12:54;2.75;2.75;2.50
73148;PMS7003;61346;48.930;2.266;2022-07-29T09:15:22;4.75;4.75;4.00
73148;PMS7003;61346;48.930;2.266;2022-07-29T09:17:48;4.50;3.50;3.00
73148;PMS7003;61346;48.930;2.266;2022-07-29T09:22:44;5.00;3.25;3.00
73148;PMS7003;61346;48.930;2.266;2022-07-29T09:28:12;3.50;3.00;3.00
73148;PMS7003;61346;48.930;2.266;2022-07-29T09:30:56;3.00;3.00;2.25
73148;PMS7003;61346;48.930;2.266;2022-07-29T09:33:33;4.25;4.00;3.00
73148;PMS7003;61346;48.930;2.266;2022-07-29T09:36:05;4.00;3.00;2.00
73148;PMS7003;61346;48.930;2.266;2022-07-29T09:38:36;3.00;3.00;2.50
73148;PMS7003;61346;48.930;2.266;2022-07-29T09:41:03;3.75;3.00;3.00
73148;PMS7003;61346;48.930;2.266;2022-07-29T09:43:29;2.25;2.25;2.00
73148;PMS7003;61346;48.930;2.266;2022-07-29T09:45:55;3.00;3.00;3.00
73148;PMS7003;61346;48.930;2.266;2022-07-29T09:48:37;3.25;3.25;3.00
73148;PMS7003;61346;48.930;2.266;2022-07-29T09:51:02;4.50;3.00;3.00
73148;PMS7003;61346;48.930;2.266;2022-07-29T09:53:31;4.25;3.25;3.25
73148;PMS7003;61346;48.930;2.266;2022-07-29T09:55:57;2.50;2.00;1.75
73148;PMS7003;61346;48.930;2.266;2022-07-29T09:58:22;4.00;2.50;2.00
73148;PMS7003;61346;48.930;2.266;2022-07-29T10:00:49;3.00;3.00;2.50
73148;PMS7003;61346;48.930;2.266;2022-07-29T10:03:15;5.75;4.25;4.00
73148;PMS7003;61346;48.930;2.266;2022-07-29T10:05:42;2.75;2.00;2.00
73148;PMS7003;61346;48.930;2.266;2022-07-29T10:08:09;4.00;4.00;3.00
73148;PMS7003;61346;48.930;2.266;2022-07-29T10:10:38;3.75;3.75;3.75
73148;PMS7003;61346;48.930;2.266;2022-07-29T10:13:07;5.00;4.00;3.50
73148;PMS7003;61346;48.930;2.266;2022-07-29T10:15:36;5.25;4.50;3.00
73148;PMS7003;61346;48.930;2.266;2022-07-29T10:18:06;3.00;3.00;2.50
73148;PMS7003;61346;48.930;2.266;2022-07-29T10:20:33;4.00;4.00;3.50
73148;PMS7003;61346;48.930;2.266;2022-07-29T10:22:59;4.00;3.00;2.75
73148;PMS7003;61346;48.930;2.266;2022-07-29T10:25:25;4.75;4.75;4.00
73148;PMS7003;61346;48.930;2.266;2022-07-29T10:27:51;3.25;3.25;3.25
73148;PMS7003;61346;48.930;2.266;2022-07-29T10:30:17;5.50;5.50;5.00
73148;PMS7003;61346;48.930;2.266;2022-07-29T10:43:50;3.25;3.25;3.00
73148;PMS7003;61346;48.930;2.266;2022-07-29T10:46:18;4.00;4.00;3.00
73148;PMS7003;61346;48.930;2.266;2022-07-29T10:57:24;4.00;4.00;4.00
73148;PMS7003;61346;48.930;2.266;2022-07-29T11:07:30;4.75;4.00;3.00
73148;PMS7003;61346;48.930;2.266;2022-07-29T11:15:02;5.00;5.00;4.00
73148;PMS7003;61346;48.930;2.266;2022-07-29T11:17:28;3.50;3.50;3.00
73148;PMS7003;61346;48.930;2.266;2022-07-29T11:22:58;4.75;4.00;3.25
73148;PMS7003;61346;48.930;2.266;2022-07-29T11:25:23;3.25;3.25;2.25
73148;PMS7003;61346;48.930;2.266;2022-07-29T11:27:49;4.00;4.00;3.00
73148;PMS7003;61346;48.930;2.266;2022-07-29T11:30:17;4.75;3.25;3.00
73148;PMS7003;61346;48.930;2.266;2022-07-29T11:32:43;2.25;2.25;2.25
73148;PMS7003;61346;48.930;2.266;2022-07-29T11:37:43;5.00;4.00;3.75
73148;PMS7003;61346;48.930;2.266;2022-07-29T11:40:10;4.00;3.00;2.00
73148;PMS7003;61346;48.930;2.266;2022-07-29T11:47:32;3.00;3.00;3.00
73148;PMS7003;61346;48.930;2.266;2022-07-29T11:50:01;4.50;3.25;2.50
73148;PMS7003;61346;48.930;2.266;2022-07-29T11:52:32;3.75;3.75;3.00
73148;PMS7003;61346;48.930;2.266;2022-07-29T11:55:02;2.25;2.25;2.00
73148;PMS7003;61346;48.930;2.266;2022-07-29T11:57:30;4.00;3.00;2.50
73148;PMS7003;61346;48.930;2.266;2022-07-29T11:59:55;3.00;3.00;3.00
73148;PMS7003;61346;48.930;2.266;2022-07-29T12:02:23;3.00;3.00;3.00
73148;PMS7003;61346;48.930;2.266;2022-07-29T12:04:52;4.25;3.25;2.50
73148;PMS7003;61346;48.930;2.266;2022-07-29T12:07:25;4.00;4.00;3.00
73148;PMS7003;61346;48.930;2.266;2022-07-29T12:09:52;4.00;4.00;3.50
73148;PMS7003;61346;48.930;2.266;2022-07-29T12:12:18;4.00;4.00;3.25
73148;PMS7003;61346;48.930;2.266;2022-07-29T12:14:44;4.50;3.00;3.00
73148;PMS7003;61346;48.930;2.266;2022-07-29T12:17:29;3.25;3.25;3.25
73148;PMS7003;61346;48.930;2.266;2022-07-29T12:19:59;4.50;4.50;4.00
73148;PMS7003;61346;48.930;2.266;2022-07-29T12:22:28;4.50;3.50;3.00
73148;PMS7003;61346;48.930;2.266;2022-07-29T12:25:08;4.00;3.50;3.00
73148;PMS7003;61346;48.930;2.266;2022-07-29T12:27:39;3.75;3.75;3.00
73148;PMS7003;61346;48.930;2.266;2022-07-29T12:30:05;4.00;4.00;3.25
73148;PMS7003;61346;48.930;2.266;2022-07-29T12:32:33;4.00;3.50;3.00
73148;PMS7003;61346;48.930;2.266;2022-07-29T12:35:02;4.75;4.75;3.50
73148;PMS7003;61346;48.930;2.266;2022-07-29T12:37:39;3.25;3.25;3.00
73148;PMS7003;61346;48.930;2.266;2022-07-29T12:40:06;4.00;2.50;2.00
73148;PMS7003;61346;48.930;2.266;2022-07-29T12:42:33;6.00;4.00;3.50
73148;PMS7003;61346;48.930;2.266;2022-07-29T12:44:59;6.25;3.00;2.75
73148;PMS7003;61346;48.930;2.266;2022-07-29T12:47:26;3.25;3.25;2.25
73148;PMS7003;61346;48.930;2.266;2022-07-29T12:50:07;4.00;4.00;3.00
73148;PMS7003;61346;48.930;2.266;2022-07-29T12:52:35;3.00;3.00;3.00
73148;PMS7003;61346;48.930;2.266;2022-07-29T12:55:03;2.50;1.25;1.25
73148;PMS7003;61346;48.930;2.266;2022-07-29T12:57:29;3.75;3.75;3.00
73148;PMS7003;61346;48.930;2.266;2022-07-29T13:00:13;3.00;3.00;3.00
73148;PMS7003;61346;48.930;2.266;2022-07-29T13:02:40;3.00;3.00;2.00
73148;PMS7003;61346;48.930;2.266;2022-07-29T13:05:07;4.75;4.00;4.00
73148;PMS7003;61346;48.930;2.266;2022-07-29T13:07:34;4.00;4.00;3.00
73148;PMS7003;61346;48.930;2.266;2022-07-29T13:10:17;2.75;2.75;2.75
73148;PMS7003;61346;48.930;2.266;2022-07-29T13:15:34;4.00;3.75;2.75
73148;PMS7003;61346;48.930;2.266;2022-07-29T13:18:01;2.00;2.00;2.00
73148;PMS7003;61346;48.930;2.266;2022-07-29T13:20:27;3.50;3.50;3.00
73148;PMS7003;61346;48.930;2.266;2022-07-29T13:22:54;7.00;5.00;3.75
73148;PMS7003;61346;48.930;2.266;2022-07-29T13:25:25;4.75;4.00;3.75
73148;PMS7003;61346;48.930;2.266;2022-07-29T13:27:52;4.25;3.25;3.00
73148;PMS7003;61346;48.930;2.266;2022-07-29T13:30:19;4.00;4.00;3.00
73148;PMS7003;61346;48.930;2.266;2022-07-29T13:32:45;3.50;3.50;3.00
73148;PMS7003;61346;48.930;2.266;2022-07-29T13:35:11;4.50;4.50;3.75
73148;PMS7003;61346;48.930;2.266;2022-07-29T13:37:37;4.00;3.00;2.75
73148;PMS7003;61346;48.930;2.266;2022-07-29T13:40:06;3.75;3.00;3.00
73148;PMS7003;61346;48.930;2.266;2022-07-29T13:42:33;3.00;3.00;2.25
73148;PMS7003;61346;48.930;2.266;2022-07-29T13:44:58;4.00;4.00;3.25
73148;PMS7003;61346;48.930;2.266;2022-07-29T13:47:24;3.25;3.25;3.25
73148;PMS7003;61346;48.930;2.266;2022-07-29T13:49:50;2.25;2.25;2.00
73148;PMS7003;61346;48.930;2.266;2022-07-29T13:52:15;6.25;4.25;4.00
73148;PMS7003;61346;48.930;2.266;2022-07-29T13:54:41;4.25;4.00;3.50
73148;PMS7003;61346;48.930;2.266;2022-07-29T13:57:10;4.25;4.25;3.50
73148;PMS7003;61346;48.930;2.266;2022-07-29T13:59:36;2.75;2.75;2.75
73148;PMS7003;61346;48.930;2.266;2022-07-29T14:02:02;4.50;3.50;3.25
73148;PMS7003;61346;48.930;2.266;2022-07-29T14:04:28;3.00;3.00;3.00
73148;PMS7003;61346;48.930;2.266;2022-07-29T14:06:53;5.00;4.00;3.00
73148;PMS7003;61346;48.930;2.266;2022-07-29T14:09:19;5.00;5.00;4.00
73148;PMS7003;61346;48.930;2.266;2022-07-29T14:11:45;4.50;3.75;3.00
73148;PMS7003;61346;48.930;2.266;2022-07-29T14:14:11;5.00;4.25;3.50
73148;PMS7003;61346;48.930;2.266;2022-07-29T14:16:36;3.00;3.00;2.25
73148;PMS7003;61346;48.930;2.266;2022-07-29T14:19:02;3.25;3.25;3.00
73148;PMS7003;61346;48.930;2.266;2022-07-29T14:21:28;2.50;2.50;2.25
73148;PMS7003;61346;48.930;2.266;2022-07-29T14:23:53;4.25;4.25;3.50
73148;PMS7003;61346;48.930;2.266;2022-07-29T14:26:19;3.75;3.75;3.00
73148;PMS7003;61346;48.930;2.266;2022-07-29T14:28:46;4.25;4.25;4.00
73148;PMS7003;61346;48.930;2.266;2022-07-29T14:31:11;4.50;4.25;4.00
73148;PMS7003;61346;48.930;2.266;2022-07-29T14:33:37;6.75;4.00;3.00
73148;PMS7003;61346;48.930;2.266;2022-07-29T14:36:03;2.75;2.75;2.00
73148;PMS7003;61346;48.930;2.266;2022-07-29T14:38:28;5.00;5.00;4.00
73148;PMS7003;61346;48.930;2.266;2022-07-29T14:40:53;4.00;3.50;3.00
73148;PMS7003;61346;48.930;2.266;2022-07-29T14:43:19;4.00;3.00;3.00
73148;PMS7003;61346;48.930;2.266;2022-07-29T14:45:44;3.50;3.50;3.25
73148;PMS7003;61346;48.930;2.266;2022-07-29T14:48:10;3.00;3.00;2.25
73148;PMS7003;61346;48.930;2.266;2022-07-29T14:50:36;4.00;3.75;3.25
73148;PMS7003;61346;48.930;2.266;2022-07-29T14:53:02;2.50;2.50;2.00
73148;PMS7003;61346;48.930;2.266;2022-07-29T14:55:28;4.00;4.00;3.50
73148;PMS7003;61346;48.930;2.266;2022-07-29T14:57:54;4.50;4.00;3.00
73148;PMS7003;61346;48.930;2.266;2022-07-29T15:00:19;4.50;4.50;4.00
73148;PMS7003;61346;48.930;2.266;2022-07-29T15:02:46;5.00;5.00;4.00
73148;PMS7003;61346;48.930;2.266;2022-07-29T15:05:11;4.00;4.00;2.25
73148;PMS7003;61346;48.930;2.266;2022-07-29T15:07:37;4.75;4.75;3.75
73148;PMS7003;61346;48.930;2.266;2022-07-29T15:10:03;4.00;4.00;3.00
73148;PMS7003;61346;48.930;2.266;2022-07-29T15:12:31;3.00;3.00;3.00
73148;PMS7003;61346;48.930;2.266;2022-07-29T15:14:57;3.00;3.00;3.00
73148;PMS7003;61346;48.930;2.266;2022-07-29T15:17:23;0.00;0.00;0.00
73148;PMS7003;61346;48.930;2.266;2022-07-29T15:19:49;1.75;1.75;1.75